Terminal Aerodrome Forecast
Issued by NWS

Home | Current Version | Previous Version | Text Only | Print | Product List | Glossary On
Versions: 1 2 3 4 5 6 7 8 9 10 11 12 13 14 15 16 17 18 19 20 21 22 23 24 25 26 27 28 29 30 31 32 33 34 35 36 37 38 39
000
FTUS45 KGJT 300606 AAA
TAFRIL
TAF AMD
KRIL 300606Z 3006/3106 08004KT P6SM -RA OVC100
     FM300700 06006KT P6SM VCSH FEW060 OVC090
     FM301200 VRB02KT P6SM SCT060 BKN090
     FM302000 05007KT P6SM VCTS SCT070CB BKN100
     FM310000 32009KT P6SM -SHRA OVC050=

USA.gov is the U.S. government's official web portal to all federal, state and local government web resources and services.